Time;durP1;ratioP1;P1;durP2;ratioP2;P2;SDS_P1;SDS_P2;PMS_P1;PMS_P2;Temp;Humidity;BMP_temperature;BMP_pressure;BME280_temperature;BME280_humidity;BME280_pressure;Samples;Min_cycle;Max_cycle;Signal;HPM_P1;HPM_P2
2023/03/14 00:00:21;;;;;;;0.00;0.00;;;;;;;17.84;53.11;98679.59;2090170;28;20049;-57
2023/03/14 00:01:24;;;;;;;0.10;0.10;;;;;;;17.83;53.53;98667.94;2087737;28;20053;-57
2023/03/14 00:02:27;;;;;;;0.10;0.10;;;;;;;17.84;53.33;98668.66;2086533;28;20065;-58
2023/03/14 00:03:30;;;;;;;0.10;0.10;;;;;;;17.83;53.14;98667.16;2085918;28;20060;-58
2023/03/14 00:04:33;;;;;;;0.10;0.10;;;;;;;17.84;53.43;98672.16;2095438;28;20632;-58
2023/03/14 00:05:36;;;;;;;0.05;0.05;;;;;;;17.84;53.25;98657.75;2094060;28;20135;-57
2023/03/14 00:06:39;;;;;;;0.10;0.10;;;;;;;17.82;53.20;98663.66;2093037;28;20092;-57
2023/03/14 00:07:41;;;;;;;0.10;0.10;;;;;;;17.83;53.27;98664.44;2088453;28;20505;-58
2023/03/14 00:08:45;;;;;;;0.10;0.10;;;;;;;17.84;53.21;98653.06;2090295;28;20221;-58
2023/03/14 00:09:47;;;;;;;0.10;0.10;;;;;;;17.83;53.16;98645.31;2087796;28;20111;-58
2023/03/14 00:10:50;;;;;;;0.08;0.08;;;;;;;17.82;53.34;98647.28;2087887;28;20398;-57
2023/03/14 00:11:52;;;;;;;0.10;0.10;;;;;;;17.83;53.42;98653.50;2091411;28;20050;-57
2023/03/14 00:12:55;;;;;;;0.10;0.10;;;;;;;17.84;53.11;98652.28;2084257;28;20506;-58
2023/03/14 00:13:57;;;;;;;0.10;0.10;;;;;;;17.83;53.30;98657.00;2070812;28;20133;-57
2023/03/14 00:15:03;;;;;;;0.10;0.10;;;;;;;17.82;53.34;98652.72;2079014;28;20057;-57
2023/03/14 00:16:07;;;;;;;0.05;0.05;;;;;;;17.84;53.38;98660.47;2087776;28;20084;-57
2023/03/14 00:17:10;;;;;;;0.05;0.05;;;;;;;17.82;53.15;98654.72;2087635;28;20057;-57
2023/03/14 00:18:12;;;;;;;0.10;0.10;;;;;;;17.84;52.95;98652.28;2088546;28;20056;-57
2023/03/14 00:19:15;;;;;;;0.10;0.10;;;;;;;17.83;53.23;98648.03;2088073;28;20049;-57
2023/03/14 00:20:17;;;;;;;0.10;0.10;;;;;;;17.83;53.24;98659.75;2088300;28;20064;-57
2023/03/14 00:21:21;;;;;;;0.10;0.10;;;;;;;17.84;53.04;98647.59;2089029;28;20056;-57
2023/03/14 00:22:23;;;;;;;0.05;0.05;;;;;;;17.82;53.37;98650.00;2087973;28;20494;-57
2023/03/14 00:23:26;;;;;;;0.17;0.17;;;;;;;17.82;53.21;98644.53;2088374;28;20068;-57
2023/03/14 00:24:28;;;;;;;0.10;0.10;;;;;;;17.83;53.33;98650.78;2087326;28;20506;-58
2023/03/14 00:25:31;;;;;;;0.13;0.13;;;;;;;17.83;53.17;98648.03;2088003;28;20064;-57
2023/03/14 00:26:33;;;;;;;0.10;0.10;;;;;;;17.83;53.16;98650.78;2088140;28;20480;-57
2023/03/14 00:27:36;;;;;;;0.05;0.05;;;;;;;17.82;53.41;98660.19;2085069;28;20593;-58
2023/03/14 00:28:40;;;;;;;0.10;0.10;;;;;;;17.82;53.19;98650.00;2086608;28;20715;-57
2023/03/14 00:29:44;;;;;;;0.10;0.10;;;;;;;17.80;53.32;98652.44;2088978;28;20049;-58
2023/03/14 00:30:46;;;;;;;0.10;0.10;;;;;;;17.82;53.23;98644.53;2087773;28;20080;-57
2023/03/14 00:31:49;;;;;;;0.10;0.10;;;;;;;17.82;53.30;98655.47;2086726;28;20163;-58
2023/03/14 00:32:52;;;;;;;0.10;0.10;;;;;;;17.82;53.17;98654.72;2086570;28;20045;-57
2023/03/14 00:33:55;;;;;;;0.10;0.10;;;;;;;17.83;53.33;98656.25;2095087;28;20053;-57
2023/03/14 00:34:57;;;;;;;0.08;0.08;;;;;;;17.82;53.32;98649.25;2087222;28;20249;-57
2023/03/14 00:36:04;;;;;;;0.10;0.10;;;;;;;17.81;53.21;98648.50;2078644;28;20124;-57
2023/03/14 00:37:07;;;;;;;0.10;0.10;;;;;;;17.82;53.02;98655.47;2080166;28;20088;-58
2023/03/14 00:38:10;;;;;;;0.00;0.00;;;;;;;17.81;53.20;98650.44;2091835;28;20083;-57
2023/03/14 00:39:13;;;;;;;0.10;0.10;;;;;;;17.82;53.49;98652.00;2087306;28;20384;-57
2023/03/14 00:40:15;;;;;;;0.05;0.05;;;;;;;17.83;53.20;98658.97;2087883;28;20069;-58
2023/03/14 00:41:22;;;;;;;0.10;0.10;;;;;;;17.83;52.99;98654.28;2093287;28;20095;-57
2023/03/14 00:42:24;;;;;;;0.10;0.10;;;;;;;17.82;52.96;98649.25;2094046;28;20529;-58
2023/03/14 00:43:26;;;;;;;0.00;0.00;;;;;;;17.82;53.30;98654.72;2088900;28;20053;-57
2023/03/14 00:44:29;;;;;;;0.10;0.10;;;;;;;17.83;53.05;98656.25;2087278;28;20052;-57
2023/03/14 00:45:32;;;;;;;0.00;0.00;;;;;;;17.81;53.19;98653.94;2087635;28;20049;-58
2023/03/14 00:46:34;;;;;;;0.10;0.10;;;;;;;17.83;52.99;98658.97;2087760;28;20517;-57
2023/03/14 00:47:37;;;;;;;0.10;0.10;;;;;;;17.82;52.98;98655.47;2087408;28;20075;-58
2023/03/14 00:48:39;;;;;;;0.10;0.10;;;;;;;17.82;53.19;98652.72;2088036;28;20114;-57
2023/03/14 00:49:43;;;;;;;0.00;0.00;;;;;;;17.82;53.13;98643.81;2094580;28;20049;-58
2023/03/14 00:50:46;;;;;;;0.10;0.10;;;;;;;17.81;53.14;98664.88;2091711;28;20080;-58
2023/03/14 00:51:51;;;;;;;0.10;0.10;;;;;;;17.82;53.14;98660.94;2094836;28;20387;-57
2023/03/14 00:52:54;;;;;;;0.05;0.05;;;;;;;17.83;53.20;98653.50;2094344;28;20056;-57
2023/03/14 00:53:57;;;;;;;0.10;0.10;;;;;;;17.81;53.33;98650.44;2091373;28;20041;-57
2023/03/14 00:55:00;;;;;;;0.10;0.10;;;;;;;17.82;53.23;98660.94;2086669;28;20510;-57
2023/03/14 00:56:03;;;;;;;0.10;0.10;;;;;;;17.83;53.04;98656.25;2078985;28;20060;-57
2023/03/14 00:57:05;;;;;;;0.13;0.13;;;;;;;17.83;53.21;98661.69;2087478;28;20060;-58
2023/03/14 00:58:08;;;;;;;0.10;0.10;;;;;;;17.82;53.25;98660.19;2087623;28;20124;-57
2023/03/14 00:59:10;;;;;;;0.10;0.10;;;;;;;17.79;53.25;98661.06;2087464;28;20057;-58
2023/03/14 01:00:14;;;;;;;0.10;0.10;;;;;;;17.82;53.09;98671.09;2092228;28;20037;-58
2023/03/14 01:01:18;;;;;;;0.10;0.10;;;;;;;17.83;53.31;98678.06;2095179;28;20060;-57
2023/03/14 01:02:21;;;;;;;0.10;0.10;;;;;;;17.82;53.13;98665.63;2093640;28;20040;-57
2023/03/14 01:03:24;;;;;;;0.10;0.10;;;;;;;17.78;53.21;98656.78;2086035;28;20249;-57
2023/03/14 01:04:27;;;;;;;0.10;0.10;;;;;;;17.80;53.03;98663.34;2087202;28;20586;-57
2023/03/14 01:05:30;;;;;;;0.10;0.10;;;;;;;17.81;53.16;98664.09;2089813;28;20392;-58
2023/03/14 01:06:33;;;;;;;0.10;0.10;;;;;;;17.83;53.31;98650.78;2089788;28;20102;-57
2023/03/14 01:07:35;;;;;;;0.10;0.10;;;;;;;17.81;53.15;98656.69;2088706;28;20066;-58
2023/03/14 01:08:42;;;;;;;0.10;0.10;;;;;;;17.83;53.18;98650.78;2089392;28;20045;-58
2023/03/14 01:09:45;;;;;;;0.10;0.10;;;;;;;17.81;53.22;98647.72;2091264;28;20049;-57
2023/03/14 01:10:47;;;;;;;0.10;0.10;;;;;;;17.81;53.10;98643.03;2089366;28;20060;-57
2023/03/14 01:11:50;;;;;;;0.10;0.10;;;;;;;17.82;53.15;98652.00;2095646;28;20080;-58
2023/03/14 01:12:52;;;;;;;0.10;0.10;;;;;;;17.82;53.16;98643.81;2087580;28;20056;-58
2023/03/14 01:13:56;;;;;;;0.10;0.10;;;;;;;17.82;53.15;98643.81;2090560;28;20045;-57
2023/03/14 01:14:58;;;;;;;0.10;0.10;;;;;;;17.81;52.97;98648.50;2093227;28;20162;-57
2023/03/14 01:16:04;;;;;;;0.10;0.10;;;;;;;17.83;52.85;98650.78;2089059;28;20048;-57
2023/03/14 01:17:06;;;;;;;0.13;0.13;;;;;;;17.81;53.26;98642.25;2088180;28;20060;-57
2023/03/14 01:18:09;;;;;;;0.05;0.05;;;;;;;17.81;53.10;98648.50;2089580;28;20060;-57
2023/03/14 01:19:11;;;;;;;0.10;0.10;;;;;;;17.81;53.16;98648.50;2088979;28;20088;-58
2023/03/14 01:20:15;;;;;;;0.10;0.10;;;;;;;17.82;53.01;98641.81;2089964;28;20060;-57
2023/03/14 01:21:19;;;;;;;0.10;0.10;;;;;;;17.82;53.28;98638.34;2091946;28;20051;-57
2023/03/14 01:22:22;;;;;;;0.10;0.10;;;;;;;17.80;53.08;98644.25;2089153;28;20049;-58
2023/03/14 01:23:24;;;;;;;0.10;0.10;;;;;;;17.81;52.89;98653.94;2090199;28;20529;-56
2023/03/14 01:24:29;;;;;;;0.10;0.10;;;;;;;17.82;53.06;98655.47;2089152;28;20057;-56
2023/03/14 01:25:31;;;;;;;0.13;0.13;;;;;;;17.81;53.04;98651.22;2089053;28;20057;-57
2023/03/14 01:26:35;;;;;;;0.10;0.10;;;;;;;17.82;52.90;98657.44;2094853;28;20146;-57
2023/03/14 01:27:40;;;;;;;0.10;0.10;;;;;;;17.81;53.04;98658.63;2094353;28;20069;-57
2023/03/14 01:28:43;;;;;;;0.10;0.10;;;;;;;17.81;53.15;98656.69;2096541;28;20041;-56
2023/03/14 01:29:47;;;;;;;0.10;0.10;;;;;;;17.82;52.81;98652.00;2094893;28;20044;-56
2023/03/14 01:30:50;;;;;;;0.10;0.10;;;;;;;17.81;52.84;98653.19;2088197;28;20049;-57
2023/03/14 01:31:52;;;;;;;0.10;0.10;;;;;;;17.81;52.82;98658.63;2079923;28;20056;-57
2023/03/14 01:32:55;;;;;;;0.10;0.10;;;;;;;17.81;53.06;98653.19;2088300;28;20094;-57
2023/03/14 01:33:57;;;;;;;0.10;0.10;;;;;;;17.82;53.04;98649.25;2090940;28;20468;-57
2023/03/14 01:35:00;;;;;;;0.10;0.10;;;;;;;17.82;52.57;98649.25;2087970;28;20489;-56
2023/03/14 01:36:03;;;;;;;0.10;0.10;;;;;;;17.82;52.90;98643.81;2094198;28;20094;-56
2023/03/14 01:37:07;;;;;;;0.10;0.10;;;;;;;17.81;53.15;98648.50;2091655;28;20049;-57
2023/03/14 01:38:11;;;;;;;0.10;0.10;;;;;;;17.80;53.16;98644.25;2084548;28;20525;-57
2023/03/14 01:39:14;;;;;;;0.10;0.10;;;;;;;17.81;52.77;98645.00;2084682;28;20060;-57
2023/03/14 01:40:18;;;;;;;0.10;0.10;;;;;;;17.82;53.20;98654.72;2080044;28;20164;-57
2023/03/14 01:41:23;;;;;;;0.10;0.10;;;;;;;17.81;52.96;98642.25;2079554;28;20057;-57
2023/03/14 01:42:26;;;;;;;0.10;0.10;;;;;;;17.80;53.14;98651.66;2079074;28;20052;-57
2023/03/14 01:43:31;;;;;;;0.10;0.10;;;;;;;17.81;52.93;98653.19;2087557;28;20891;-57
2023/03/14 01:44:48;;;;;;;0.10;0.10;;;;;;;17.74;53.29;98654.19;2092721;28;20079;-57
2023/03/14 01:46:26;;;;;;;0.10;0.10;;;;;;;17.70;53.02;98647.31;2094447;28;20049;-58
2023/03/14 01:47:30;;;;;;;0.10;0.10;;;;;;;17.74;53.01;98645.25;2078576;28;20060;-57
2023/03/14 01:48:36;;;;;;;0.10;0.10;;;;;;;17.75;52.89;98647.53;2079976;28;20081;-57
2023/03/14 01:49:38;;;;;;;0.10;0.10;;;;;;;17.76;53.45;98645.53;2079891;28;20061;-57
2023/03/14 01:50:45;;;;;;;0.10;0.10;;;;;;;17.76;53.00;98640.84;2080287;28;20391;-58
2023/03/14 01:51:54;;;;;;;0.10;0.10;;;;;;;17.77;53.02;98641.63;2093823;28;20053;-57
2023/03/14 01:52:57;;;;;;;0.10;0.10;;;;;;;17.74;53.18;98640.53;2079903;28;20057;-57
2023/03/14 01:54:09;;;;;;;0.10;0.10;;;;;;;17.76;52.92;98646.31;2083756;28;20057;-57
2023/03/14 01:55:15;;;;;;;0.13;0.13;;;;;;;17.77;52.98;98636.16;2079715;28;20065;-58
2023/03/14 01:56:18;;;;;;;0.10;0.10;;;;;;;17.76;53.24;98635.41;2080401;28;20132;-57
2023/03/14 01:57:25;;;;;;;0.10;0.10;;;;;;;17.75;52.90;98627.66;2086950;28;20079;-57
2023/03/14 01:58:29;;;;;;;0.10;0.10;;;;;;;17.76;53.20;98624.47;2079761;28;20856;-57
2023/03/14 01:59:34;;;;;;;0.10;0.10;;;;;;;17.78;53.08;98626.78;2079781;28;20057;-57
2023/03/14 02:00:35;;;;;;;0.10;0.10;;;;;;;17.76;53.00;98629.94;2087786;28;20048;-57
2023/03/14 02:01:44;;;;;;;0.10;0.10;;;;;;;17.77;53.01;98636.16;2093449;28;20574;-58
2023/03/14 02:02:50;;;;;;;0.10;0.10;;;;;;;17.74;53.07;98618.69;2088778;28;20053;-57
2023/03/14 02:03:59;;;;;;;0.10;0.10;;;;;;;17.74;53.01;98626.13;2088149;28;20045;-58
2023/03/14 02:05:05;;;;;;;0.10;0.10;;;;;;;17.76;52.98;98620.97;2085883;28;20135;-58
2023/03/14 02:06:12;;;;;;;0.10;0.10;;;;;;;17.77;53.11;98630.72;2086011;28;20041;-57
2023/03/14 02:07:19;;;;;;;0.10;0.10;;;;;;;17.73;53.11;98622.63;2086282;28;20057;-57
2023/03/14 02:08:48;;;;;;;0.10;0.10;;;;;;;17.72;53.26;98625.81;2082554;28;20084;-57
2023/03/14 02:09:56;;;;;;;0.10;0.10;;;;;;;17.73;53.12;98619.13;2083985;28;20129;-56
2023/03/14 02:11:01;;;;;;;0.15;0.15;;;;;;;17.73;53.17;98624.59;2086116;28;20049;-58
2023/03/14 02:12:27;;;;;;;0.10;0.10;;;;;;;17.72;53.54;98623.06;2088663;28;20060;-58
2023/03/14 02:13:45;;;;;;;0.10;0.10;;;;;;;17.69;53.19;98618.50;2089998;28;20056;-58
2023/03/14 02:15:07;;;;;;;0.10;0.10;;;;;;;17.68;53.09;98622.41;2088983;28;20049;-58
2023/03/14 02:16:30;;;;;;;0.10;0.10;;;;;;;17.65;53.04;98626.03;2077033;28;20054;-57
2023/03/14 02:17:53;;;;;;;0.08;0.08;;;;;;;17.67;53.35;98635.31;2082162;28;20096;-58
2023/03/14 02:19:14;;;;;;;0.10;0.10;;;;;;;17.66;53.23;98627.56;2084732;28;20077;-57
2023/03/14 02:20:39;;;;;;;0.10;0.10;;;;;;;17.67;53.02;98631.81;2077761;28;20114;-57
2023/03/14 02:21:49;;;;;;;0.10;0.10;;;;;;;17.65;53.20;98626.81;2078944;28;20049;-57
2023/03/14 02:22:56;;;;;;;0.05;0.05;;;;;;;17.67;53.19;98631.81;2080873;28;20495;-57
2023/03/14 02:24:09;;;;;;;0.10;0.10;;;;;;;17.67;53.34;98626.38;2071568;28;20069;-58
2023/03/14 02:25:27;;;;;;;0.10;0.10;;;;;;;17.65;53.20;98628.75;2084238;28;20523;-57
2023/03/14 02:26:37;;;;;;;0.10;0.10;;;;;;;17.67;53.39;98627.13;2073856;28;20053;-58
2023/03/14 02:27:44;;;;;;;0.10;0.10;;;;;;;17.68;53.09;98614.22;2073078;28;20069;-57
2023/03/14 02:28:46;;;;;;;0.10;0.10;;;;;;;17.68;53.26;98619.69;2080883;28;20415;-57
2023/03/14 02:29:53;;;;;;;0.10;0.10;;;;;;;17.70;53.14;98623.53;2086933;28;20280;-58
2023/03/14 02:30:55;;;;;;;0.10;0.10;;;;;;;17.71;53.27;98616.09;2084912;28;20052;-57
2023/03/14 02:31:58;;;;;;;0.13;0.13;;;;;;;17.71;53.27;98616.09;2084136;28;20053;-57
2023/03/14 02:33:05;;;;;;;0.10;0.10;;;;;;;17.72;52.94;98617.63;2084697;28;20637;-58
2023/03/14 02:34:07;;;;;;;0.10;0.10;;;;;;;17.72;53.10;98601.25;2090650;28;20098;-57
2023/03/14 02:35:14;;;;;;;0.10;0.10;;;;;;;17.73;52.93;98619.13;2088354;28;20048;-57
2023/03/14 02:36:20;;;;;;;0.10;0.10;;;;;;;17.72;53.13;98609.44;2072357;28;20415;-57
2023/03/14 02:37:26;;;;;;;0.10;0.10;;;;;;;17.72;52.76;98612.94;2081396;28;20089;-57
2023/03/14 02:38:34;;;;;;;0.10;0.10;;;;;;;17.71;53.01;98616.84;2087682;28;20057;-57
2023/03/14 02:39:42;;;;;;;0.10;0.10;;;;;;;17.72;52.94;98601.25;2091798;28;20083;-57
2023/03/14 02:40:45;;;;;;;0.10;0.10;;;;;;;17.72;53.11;98606.69;2100121;28;20078;-58
2023/03/14 02:41:49;;;;;;;0.10;0.10;;;;;;;17.73;52.86;98608.22;2088764;28;20060;-57
2023/03/14 02:42:53;;;;;;;0.10;0.10;;;;;;;17.74;52.97;98602.31;2081360;28;20522;-57
2023/03/14 02:43:55;;;;;;;0.10;0.10;;;;;;;17.73;53.09;98608.22;2086123;28;20156;-57
2023/03/14 02:45:22;;;;;;;0.10;0.10;;;;;;;17.74;52.91;98590.66;2089507;28;20078;-57
2023/03/14 02:46:26;;;;;;;0.10;0.10;;;;;;;17.70;53.14;98600.91;2094609;28;20052;-57
2023/03/14 02:47:30;;;;;;;0.03;0.03;;;;;;;17.71;53.12;98600.47;2084850;28;20737;-57
2023/03/14 02:48:38;;;;;;;0.10;0.10;;;;;;;17.73;52.61;98603.53;2089097;28;20049;-57
2023/03/14 02:49:40;;;;;;;0.10;0.10;;;;;;;17.71;53.10;98605.19;2088417;28;20068;-58
2023/03/14 02:50:46;;;;;;;0.10;0.10;;;;;;;17.72;53.04;98607.47;2089000;28;20048;-57
2023/03/14 02:51:48;;;;;;;0.10;0.10;;;;;;;17.73;53.04;98597.31;2094369;28;20101;-57
2023/03/14 02:52:51;;;;;;;0.10;0.10;;;;;;;17.73;52.67;98603.53;2095185;28;20056;-57
2023/03/14 02:53:53;;;;;;;0.10;0.10;;;;;;;17.74;53.19;98604.31;2088141;28;20056;-57
2023/03/14 02:54:58;;;;;;;0.08;0.08;;;;;;;17.73;53.14;98619.91;2094817;28;20089;-57
2023/03/14 02:56:01;;;;;;;0.10;0.10;;;;;;;17.75;53.01;98597.63;2087269;28;20053;-59
2023/03/14 02:57:05;;;;;;;0.10;0.10;;;;;;;17.75;53.08;98605.81;2086162;28;20088;-57
2023/03/14 02:58:08;;;;;;;0.10;0.10;;;;;;;17.76;52.71;98612.78;2088143;28;20124;-57
2023/03/14 02:59:11;;;;;;;0.10;0.10;;;;;;;17.75;52.83;98605.81;2094793;28;20049;-58
2023/03/14 03:00:21;;;;;;;0.10;0.10;;;;;;;17.73;52.83;98597.31;2093377;28;20048;-57
2023/03/14 03:01:24;;;;;;;0.10;0.10;;;;;;;17.75;52.73;98611.28;2095784;28;20127;-57
2023/03/14 03:02:26;;;;;;;0.10;0.10;;;;;;;17.74;53.00;98607.03;2091641;28;20091;-57
2023/03/14 03:03:29;;;;;;;0.10;0.10;;;;;;;17.72;53.00;98602.03;2090089;28;20049;-57
2023/03/14 03:04:32;;;;;;;0.10;0.10;;;;;;;17.75;53.21;98605.81;2087695;28;20517;-57
2023/03/14 03:05:35;;;;;;;0.10;0.10;;;;;;;17.75;52.76;98605.81;2088692;28;20053;-57
2023/03/14 03:06:37;;;;;;;0.10;0.10;;;;;;;17.75;53.01;98601.13;2095338;28;20889;-57
2023/03/14 03:07:40;;;;;;;0.10;0.10;;;;;;;17.74;52.96;98601.56;2094781;28;20044;-57
2023/03/14 03:08:44;;;;;;;0.10;0.10;;;;;;;17.75;53.14;98597.63;2095293;28;20055;-58
2023/03/14 03:09:47;;;;;;;0.10;0.10;;;;;;;17.75;52.73;98600.34;2084074;28;20056;-57
2023/03/14 03:10:51;;;;;;;0.10;0.10;;;;;;;17.74;52.45;98599.59;2092191;28;20169;-58
2023/03/14 03:11:54;;;;;;;0.10;0.10;;;;;;;17.76;53.09;98604.59;2090327;28;20389;-57
2023/03/14 03:12:58;;;;;;;0.10;0.10;;;;;;;17.75;53.01;98589.44;2084742;28;20135;-57
2023/03/14 03:14:03;;;;;;;0.10;0.10;;;;;;;17.76;52.82;98596.41;2088738;28;20111;-57
2023/03/14 03:15:06;;;;;;;0.10;0.10;;;;;;;17.76;53.19;98608.09;2088723;28;20056;-57
2023/03/14 03:16:13;;;;;;;0.10;0.10;;;;;;;17.75;52.75;98606.59;2079427;28;20642;-57
2023/03/14 03:17:15;;;;;;;0.10;0.10;;;;;;;17.75;52.97;98601.13;2087240;28;20099;-57
2023/03/14 03:18:19;;;;;;;0.10;0.10;;;;;;;17.75;52.83;98595.66;2090886;28;20052;-57
2023/03/14 03:19:22;;;;;;;0.08;0.08;;;;;;;17.74;52.78;98593.38;2095336;28;20064;-57
2023/03/14 03:20:25;;;;;;;0.10;0.10;;;;;;;17.76;52.81;98596.41;2086669;28;20040;-57
2023/03/14 03:21:26;;;;;;;0.10;0.10;;;;;;;17.75;52.80;98595.66;2092933;28;20056;-57
2023/03/14 03:22:30;;;;;;;0.10;0.10;;;;;;;17.76;53.00;98591.72;2088467;28;20080;-57
2023/03/14 03:23:32;;;;;;;0.00;0.00;;;;;;;17.77;52.98;98600.69;2091597;28;20080;-57
2023/03/14 03:24:35;;;;;;;0.10;0.10;;;;;;;17.76;52.97;98599.91;2095566;28;20071;-57
2023/03/14 03:25:37;;;;;;;0.10;0.10;;;;;;;17.76;52.80;98599.91;2089957;28;20486;-57
2023/03/14 03:26:40;;;;;;;0.10;0.10;;;;;;;17.76;52.74;98591.72;2097291;28;20036;-57
2023/03/14 03:27:44;;;;;;;0.10;0.10;;;;;;;17.76;52.67;98594.47;2087537;28;20056;-57
2023/03/14 03:28:47;;;;;;;0.10;0.10;;;;;;;17.76;53.05;98590.97;2079413;28;20092;-58
2023/03/14 03:29:51;;;;;;;0.10;0.10;;;;;;;17.77;52.80;98598.69;2078392;28;20095;-57
2023/03/14 03:30:54;;;;;;;0.10;0.10;;;;;;;17.76;52.90;98602.66;2089556;28;20045;-57
2023/03/14 03:31:56;;;;;;;0.10;0.10;;;;;;;17.77;53.01;98595.22;2087517;28;20056;-57
2023/03/14 03:32:59;;;;;;;0.10;0.10;;;;;;;17.77;53.09;98603.41;2088244;28;20068;-57
2023/03/14 03:34:02;;;;;;;0.10;0.10;;;;;;;17.77;53.19;98603.41;2092171;28;20828;-57
2023/03/14 03:35:06;;;;;;;0.10;0.10;;;;;;;17.77;52.76;98592.50;2095501;28;20080;-57
2023/03/14 03:36:13;;;;;;;0.10;0.10;;;;;;;17.73;53.12;98597.31;2098118;28;20044;-57
2023/03/14 03:37:15;;;;;;;0.10;0.10;;;;;;;17.76;53.05;98602.66;2095889;28;20088;-57
2023/03/14 03:38:19;;;;;;;0.10;0.10;;;;;;;17.76;53.02;98586.25;2095094;28;20493;-57
2023/03/14 03:39:24;;;;;;;0.10;0.10;;;;;;;17.76;52.85;98607.34;2094936;28;20044;-57
2023/03/14 03:40:27;;;;;;;0.10;0.10;;;;;;;17.73;52.96;98598.06;2095247;28;20047;-58
2023/03/14 03:41:31;;;;;;;0.05;0.05;;;;;;;17.76;53.04;98599.91;2086977;28;20044;-58
2023/03/14 03:42:34;;;;;;;0.10;0.10;;;;;;;17.77;52.96;98600.69;2079387;28;20044;-57
2023/03/14 03:43:37;;;;;;;0.10;0.10;;;;;;;17.77;52.91;98597.97;2079399;28;20060;-58
2023/03/14 03:44:41;;;;;;;0.10;0.10;;;;;;;17.77;52.96;98595.22;2087317;28;20079;-57
2023/03/14 03:45:46;;;;;;;0.10;0.10;;;;;;;17.78;52.64;98602.19;2098139;28;20036;-57
2023/03/14 03:46:48;;;;;;;0.10;0.10;;;;;;;17.77;52.94;98592.50;2091070;28;20048;-57
2023/03/14 03:47:51;;;;;;;0.10;0.10;;;;;;;17.77;52.96;98597.97;2087554;28;20057;-57
2023/03/14 03:48:56;;;;;;;0.10;0.10;;;;;;;17.78;52.79;98604.94;2088008;28;20052;-57
2023/03/14 03:50:01;;;;;;;0.05;0.05;;;;;;;17.76;52.89;98599.16;2070578;28;20046;-57
2023/03/14 03:51:03;;;;;;;0.10;0.10;;;;;;;17.76;52.69;98597.19;2071234;28;20062;-57
2023/03/14 03:52:06;;;;;;;0.10;0.10;;;;;;;17.76;52.75;98597.19;2093295;28;20958;-58
2023/03/14 03:53:08;;;;;;;0.10;0.10;;;;;;;17.77;52.79;98608.88;2085532;28;20052;-57
2023/03/14 03:54:12;;;;;;;0.10;0.10;;;;;;;17.77;52.77;98604.16;2087537;28;20475;-57
2023/03/14 03:55:14;;;;;;;0.10;0.10;;;;;;;17.77;52.63;98597.97;2093587;28;20048;-57
2023/03/14 03:56:18;;;;;;;0.10;0.10;;;;;;;17.76;52.95;98604.59;2095073;28;20053;-57
2023/03/14 03:57:20;;;;;;;0.10;0.10;;;;;;;17.77;52.77;98603.41;2093304;28;20488;-57
2023/03/14 03:58:23;;;;;;;0.10;0.10;;;;;;;17.76;52.79;98602.66;2086911;28;20075;-58
2023/03/14 03:59:25;;;;;;;0.10;0.10;;;;;;;17.77;52.81;98598.69;2091517;28;20059;-58
2023/03/14 04:00:28;;;;;;;0.10;0.10;;;;;;;17.77;52.85;98603.41;2094860;28;20044;-57
2023/03/14 04:01:31;;;;;;;0.10;0.10;;;;;;;17.78;52.69;98599.47;2078648;28;20211;-58
2023/03/14 04:02:35;;;;;;;0.10;0.10;;;;;;;17.77;52.81;98603.41;2078994;28;20049;-58
2023/03/14 04:03:38;;;;;;;0.10;0.10;;;;;;;17.77;53.09;98598.69;2087266;28;20192;-58
2023/03/14 04:04:42;;;;;;;0.10;0.10;;;;;;;17.76;52.80;98602.66;2087620;28;20106;-57
2023/03/14 04:05:44;;;;;;;0.10;0.10;;;;;;;17.75;52.67;98603.09;2087411;28;20056;-57
2023/03/14 04:06:46;;;;;;;0.08;0.08;;;;;;;17.77;52.88;98603.41;2092792;28;20127;-57
2023/03/14 04:07:48;;;;;;;0.00;0.00;;;;;;;17.77;52.87;98600.69;2093206;28;20045;-57
2023/03/14 04:08:57;;;;;;;0.10;0.10;;;;;;;17.77;52.96;98597.97;2089969;28;20094;-57
2023/03/14 04:10:11;;;;;;;0.10;0.10;;;;;;;17.74;52.65;98599.59;2081538;28;20053;-57
2023/03/14 04:11:18;;;;;;;0.15;0.15;;;;;;;17.75;52.97;98600.34;2084345;28;20037;-57
2023/03/14 04:12:41;;;;;;;0.00;0.00;;;;;;;17.71;52.80;98600.47;2088990;28;20464;-58
2023/03/14 04:13:51;;;;;;;0.10;0.10;;;;;;;17.72;52.81;98596.56;2089029;28;20419;-57
2023/03/14 04:14:54;;;;;;;0.10;0.10;;;;;;;17.74;52.62;98607.78;2093001;28;20410;-57
2023/03/14 04:15:57;;;;;;;0.10;0.10;;;;;;;17.75;52.86;98594.91;2091627;28;20048;-58
2023/03/14 04:17:03;;;;;;;0.10;0.10;;;;;;;17.75;52.88;98597.63;2086099;28;20132;-57
2023/03/14 04:18:05;;;;;;;0.17;0.17;;;;;;;17.74;52.74;98601.56;2094895;28;20056;-57
2023/03/14 04:19:08;;;;;;;0.10;0.10;;;;;;;17.76;52.82;98593.69;2094097;28;20059;-58
2023/03/14 04:20:11;;;;;;;0.20;0.20;;;;;;;17.76;52.83;98588.22;2087180;28;20502;-58
2023/03/14 04:21:16;;;;;;;0.10;0.10;;;;;;;17.76;52.69;98601.88;2086725;28;20190;-57
2023/03/14 04:22:22;;;;;;;0.10;0.10;;;;;;;17.73;52.65;98598.06;2084757;28;20057;-57
2023/03/14 04:23:26;;;;;;;0.03;0.03;;;;;;;17.75;52.62;98600.34;2084105;28;20045;-58
2023/03/14 04:24:30;;;;;;;0.10;0.10;;;;;;;17.75;53.00;98595.66;2080670;28;20568;-57
2023/03/14 04:25:33;;;;;;;0.03;0.03;;;;;;;17.76;53.08;98599.16;2070666;28;20790;-57
2023/03/14 04:26:38;;;;;;;0.03;0.03;;;;;;;17.76;52.77;98601.88;2078594;28;20128;-57
2023/03/14 04:27:42;;;;;;;0.10;0.10;;;;;;;17.75;53.12;98598.41;2094793;28;20053;-57
2023/03/14 04:28:52;;;;;;;0.00;0.00;;;;;;;17.74;53.00;98598.84;2094797;28;20052;-57
2023/03/14 04:29:57;;;;;;;0.10;0.10;;;;;;;17.74;53.18;98587.94;2086230;28;20044;-56
2023/03/14 04:31:21;;;;;;;0.08;0.08;;;;;;;17.71;52.94;98594.28;2090062;28;20529;-57
2023/03/14 04:32:25;;;;;;;0.28;0.28;;;;;;;17.74;52.81;98582.47;2092174;28;20047;-57
2023/03/14 04:33:28;;;;;;;0.17;0.17;;;;;;;17.74;53.03;98593.38;2094310;28;20091;-58
2023/03/14 04:34:31;;;;;;;0.00;0.00;;;;;;;17.73;52.80;98597.31;2095004;28;20059;-57
2023/03/14 04:35:35;;;;;;;0.00;0.00;;;;;;;17.71;52.98;98580.63;2094597;28;20131;-58
2023/03/14 04:36:42;;;;;;;0.00;0.00;;;;;;;17.73;52.82;98603.53;2094653;28;20048;-57
2023/03/14 04:37:51;;;;;;;0.00;0.00;;;;;;;17.73;52.63;98591.84;2076720;28;20520;-57
2023/03/14 04:38:54;;;;;;;0.00;0.00;;;;;;;17.74;53.10;98596.13;2086020;28;20095;-57
2023/03/14 04:39:59;;;;;;;0.10;0.10;;;;;;;17.73;52.81;98594.56;2092535;28;20053;-57
2023/03/14 04:41:05;;;;;;;0.00;0.00;;;;;;;17.74;52.89;98593.38;2086360;28;20575;-57
2023/03/14 04:42:10;;;;;;;0.10;0.10;;;;;;;17.72;52.81;98584.88;2088602;28;20140;-57
2023/03/14 04:43:12;;;;;;;0.05;0.05;;;;;;;17.73;52.94;98591.84;2096943;28;20059;-57
2023/03/14 04:44:22;;;;;;;0.15;0.15;;;;;;;17.72;53.02;98596.56;2089477;28;20564;-57
2023/03/14 04:45:26;;;;;;;0.10;0.10;;;;;;;17.72;52.85;98590.31;2080715;28;20506;-57
2023/03/14 04:46:32;;;;;;;0.10;0.10;;;;;;;17.72;52.88;98593.06;2094675;28;20084;-57
2023/03/14 04:47:36;;;;;;;0.00;0.00;;;;;;;17.74;52.54;98598.84;2096615;28;20075;-57
2023/03/14 04:48:39;;;;;;;0.15;0.15;;;;;;;17.73;52.72;98597.31;2094061;28;20051;-57
2023/03/14 04:49:42;;;;;;;0.10;0.10;;;;;;;17.74;52.92;98599.59;2096815;28;20109;-57
2023/03/14 04:50:48;;;;;;;0.00;0.00;;;;;;;17.74;53.00;98604.31;2089828;28;20084;-58
2023/03/14 04:51:50;;;;;;;0.00;0.00;;;;;;;17.74;53.07;98598.84;2089138;28;20110;-57
2023/03/14 04:52:54;;;;;;;0.00;0.00;;;;;;;17.74;52.77;98594.13;2086557;28;20067;-56
2023/03/14 04:53:56;;;;;;;0.00;0.00;;;;;;;17.73;52.72;98592.63;2079516;28;20479;-56
2023/03/14 04:54:59;;;;;;;0.10;0.10;;;;;;;17.74;52.65;98604.31;2086596;28;20076;-57
2023/03/14 04:56:02;;;;;;;0.20;0.20;;;;;;;17.75;52.71;98594.91;2088653;28;20098;-57
2023/03/14 04:57:11;;;;;;;0.17;0.17;;;;;;;17.73;52.93;98598.06;2096049;28;20044;-57
2023/03/14 04:58:14;;;;;;;0.15;0.15;;;;;;;17.74;52.91;98594.13;2096366;28;20402;-57
2023/03/14 04:59:18;;;;;;;0.05;0.05;;;;;;;17.75;52.62;98603.09;2096500;28;20537;-57
2023/03/14 05:00:20;;;;;;;0.10;0.10;;;;;;;17.74;52.91;98596.84;2094217;28;20052;-57
2023/03/14 05:01:36;;;;;;;0.05;0.05;;;;;;;17.68;52.96;98584.22;2095331;28;20068;-57
2023/03/14 05:02:57;;;;;;;0.10;0.10;;;;;;;17.70;52.86;98595.47;2096015;28;20093;-57
2023/03/14 05:04:22;;;;;;;0.10;0.10;;;;;;;17.67;53.08;98590.88;2069952;28;20065;-58
2023/03/14 05:05:46;;;;;;;0.10;0.10;;;;;;;17.67;52.99;98604.53;2085012;28;20483;-58
2023/03/14 05:07:21;;;;;;;0.10;0.10;;;;;;;17.63;53.18;98593.72;2077478;28;20494;-57